Time;durP1;ratioP1;P1;durP2;ratioP2;P2;SDS_P1;SDS_P2;PMS_P1;PMS_P2;Temp;Humidity;BMP_temperature;BMP_pressure;BME280_temperature;BME280_humidity;BME280_pressure;Samples;Min_cycle;Max_cycle;Signal;HPM_P1;HPM_P2
2021/08/08 00:01:35;;;;;;;18.53;16.83;;;15.50;99.90;;;;;;5002186;28;20216;-84
2021/08/08 00:04:04;;;;;;;18.27;16.57;;;15.60;99.90;;;;;;5017063;28;20209;-85
2021/08/08 00:06:40;;;;;;;17.00;15.37;;;15.80;99.90;;;;;;5004335;28;20303;-83
2021/08/08 00:09:09;;;;;;;16.10;14.50;;;15.90;99.90;;;;;;4982076;28;20239;-82
2021/08/08 00:11:38;;;;;;;16.03;14.43;;;16.10;99.90;;;;;;5014812;28;20239;-85
2021/08/08 00:14:08;;;;;;;15.17;13.67;;;16.20;99.90;;;;;;4996285;28;20718;-83
2021/08/08 00:16:38;;;;;;;15.27;13.80;;;16.30;99.90;;;;;;4970933;28;20220;-85
2021/08/08 00:19:06;;;;;;;15.87;14.27;;;16.30;99.90;;;;;;5002174;28;20318;-84
2021/08/08 00:21:35;;;;;;;14.47;13.17;;;16.30;99.90;;;;;;4989150;28;20207;-84
2021/08/08 00:24:05;;;;;;;15.10;13.53;;;16.40;99.90;;;;;;5005452;28;20254;-83
2021/08/08 00:26:35;;;;;;;13.73;12.33;;;16.40;99.90;;;;;;5013350;28;20196;-84
2021/08/08 00:29:04;;;;;;;14.63;13.13;;;16.50;99.90;;;;;;5009747;28;20227;-85
2021/08/08 00:31:34;;;;;;;15.80;13.43;;;16.50;99.90;;;;;;5018250;28;20466;-84
2021/08/08 00:34:03;;;;;;;13.47;12.17;;;16.50;99.90;;;;;;5006530;28;20600;-83
2021/08/08 00:36:33;;;;;;;13.07;11.83;;;16.50;99.90;;;;;;4998087;28;20207;-84
2021/08/08 00:39:03;;;;;;;14.63;13.27;;;16.50;99.90;;;;;;4998117;28;20219;-83
2021/08/08 00:41:31;;;;;;;12.97;11.77;;;16.50;99.90;;;;;;4996500;28;20210;-83
2021/08/08 00:44:00;;;;;;;14.27;12.80;;;16.50;99.90;;;;;;4999289;28;20196;-85
2021/08/08 00:46:34;;;;;;;12.77;11.60;;;16.50;99.90;;;;;;4997306;28;20207;-81
2021/08/08 00:49:02;;;;;;;14.60;11.83;;;16.60;99.90;;;;;;4998958;28;20275;-83
2021/08/08 00:51:33;;;;;;;12.37;11.27;;;16.60;99.90;;;;;;4994864;28;20219;-85
2021/08/08 00:54:02;;;;;;;12.03;10.87;;;16.60;99.90;;;;;;4994037;28;20212;-83
2021/08/08 00:56:31;;;;;;;11.83;10.73;;;16.70;99.90;;;;;;4996277;28;20203;-83
2021/08/08 00:59:00;;;;;;;12.10;10.80;;;16.80;99.90;;;;;;4992085;28;20229;-81
2021/08/08 01:01:30;;;;;;;11.67;10.33;;;16.80;99.90;;;;;;4997733;28;20288;-84
2021/08/08 01:04:01;;;;;;;11.53;10.33;;;16.90;99.90;;;;;;4992278;28;20847;-83
2021/08/08 01:06:38;;;;;;;11.30;10.13;;;16.90;99.90;;;;;;4991357;28;20255;-84
2021/08/08 01:09:08;;;;;;;12.37;10.33;;;17.00;99.90;;;;;;5015387;28;20231;-83
2021/08/08 01:11:39;;;;;;;12.90;9.40;;;17.10;99.90;;;;;;5010700;28;20200;-86
2021/08/08 01:14:12;;;;;;;13.00;10.33;;;17.10;99.90;;;;;;5021808;28;20215;-82
2021/08/08 01:16:43;;;;;;;10.87;9.87;;;17.10;99.90;;;;;;5012560;28;20208;-84
2021/08/08 01:19:20;;;;;;;13.10;10.40;;;17.20;99.90;;;;;;4984770;28;20519;-84
2021/08/08 01:21:52;;;;;;;11.47;10.27;;;17.10;99.90;;;;;;4976399;28;20559;-84
2021/08/08 01:24:30;;;;;;;10.77;9.77;;;17.20;99.90;;;;;;4995910;28;20253;-82
2021/08/08 01:27:03;;;;;;;10.60;9.37;;;17.10;99.90;;;;;;4998421;28;20259;-85
2021/08/08 01:29:35;;;;;;;10.53;9.20;;;17.20;99.90;;;;;;4996710;28;20685;-84
2021/08/08 01:32:10;;;;;;;11.00;9.90;;;17.30;99.90;;;;;;4998147;28;20266;-86
2021/08/08 01:34:41;;;;;;;11.80;9.40;;;17.20;99.90;;;;;;4999382;28;20544;-82
2021/08/08 01:37:11;;;;;;;10.10;9.30;;;17.30;99.90;;;;;;4999136;28;20208;-84
2021/08/08 01:39:46;;;;;;;9.97;8.90;;;17.30;99.90;;;;;;4981070;28;20216;-82
2021/08/08 01:42:16;;;;;;;10.30;9.40;;;17.20;99.90;;;;;;5005813;28;20223;-82
2021/08/08 01:44:50;;;;;;;9.67;8.77;;;17.30;99.90;;;;;;5007518;28;20208;-81
2021/08/08 01:47:23;;;;;;;9.60;8.70;;;17.20;99.90;;;;;;5004814;28;20203;-80
2021/08/08 01:49:59;;;;;;;9.77;8.80;;;17.30;99.90;;;;;;5003842;28;20222;-82
2021/08/08 01:52:29;;;;;;;9.73;8.87;;;17.30;99.90;;;;;;5004384;28;20204;-82
2021/08/08 01:54:59;;;;;;;9.07;8.30;;;17.20;99.90;;;;;;4995956;28;20212;-84
2021/08/08 01:57:28;;;;;;;9.70;8.77;;;17.20;99.90;;;;;;4997528;28;20227;-84
2021/08/08 02:00:01;;;;;;;9.80;8.90;;;17.20;99.90;;;;;;5000802;28;20211;-84
2021/08/08 02:02:32;;;;;;;9.33;8.43;;;17.20;99.90;;;;;;4996539;28;20207;-84
2021/08/08 02:05:02;;;;;;;9.77;8.87;;;17.20;99.90;;;;;;4996515;28;20209;-81
2021/08/08 02:07:30;;;;;;;10.77;8.90;;;17.20;99.90;;;;;;5002876;28;20227;-84
2021/08/08 02:10:00;;;;;;;9.57;8.77;;;17.20;99.90;;;;;;4996173;28;20234;-84
2021/08/08 02:12:29;;;;;;;9.80;8.60;;;17.20;99.90;;;;;;4998328;28;20208;-84
2021/08/08 02:14:58;;;;;;;10.97;8.00;;;17.30;99.90;;;;;;5001805;28;20685;-82
2021/08/08 02:17:27;;;;;;;8.93;8.10;;;17.30;99.90;;;;;;4992995;28;20207;-84
2021/08/08 02:19:56;;;;;;;9.10;8.20;;;17.40;99.90;;;;;;4990014;28;20207;-86
2021/08/08 02:22:25;;;;;;;9.60;8.20;;;17.40;99.90;;;;;;4996954;28;20265;-85
2021/08/08 02:24:54;;;;;;;9.43;8.27;;;17.50;99.90;;;;;;5000790;28;20211;-86
2021/08/08 02:27:26;;;;;;;8.97;8.17;;;17.50;99.90;;;;;;4991039;28;20272;-86
2021/08/08 02:30:00;;;;;;;9.13;8.20;;;17.50;99.90;;;;;;4989822;28;20871;-83
2021/08/08 02:32:35;;;;;;;8.80;8.00;;;17.60;99.90;;;;;;4997111;28;20203;-82
2021/08/08 02:35:12;;;;;;;8.00;7.40;;;17.60;99.90;;;;;;4992110;28;20219;-83
2021/08/08 02:37:47;;;;;;;9.60;7.77;;;17.60;99.90;;;;;;4985433;28;20209;-83
2021/08/08 02:40:17;;;;;;;8.30;7.50;;;17.70;99.90;;;;;;4990997;28;20294;-84
2021/08/08 02:42:48;;;;;;;9.07;7.80;;;17.60;99.90;;;;;;4984947;28;20207;-82
2021/08/08 02:45:26;;;;;;;8.53;7.63;;;17.60;99.90;;;;;;4992137;28;20741;-85
2021/08/08 02:47:55;;;;;;;8.93;8.13;;;17.60;99.90;;;;;;4982066;28;20200;-83
2021/08/08 02:50:27;;;;;;;9.43;8.33;;;17.60;99.90;;;;;;4998169;28;20231;-83
2021/08/08 02:53:06;;;;;;;8.80;7.97;;;17.50;99.90;;;;;;4984273;28;20207;-85
2021/08/08 02:55:35;;;;;;;10.63;8.07;;;17.50;99.90;;;;;;5013802;28;20196;-83
2021/08/08 02:58:07;;;;;;;8.43;7.63;;;17.50;99.90;;;;;;5004431;28;20688;-82
2021/08/08 03:00:37;;;;;;;8.43;7.63;;;17.40;99.90;;;;;;5005107;28;20220;-82
2021/08/08 03:03:06;;;;;;;8.43;7.63;;;17.40;99.90;;;;;;5001294;28;20717;-82
2021/08/08 03:05:38;;;;;;;8.97;8.07;;;17.50;99.90;;;;;;4975789;28;20273;-84
2021/08/08 03:08:16;;;;;;;8.77;8.03;;;17.40;99.90;;;;;;5003533;28;20195;-85
2021/08/08 03:10:45;;;;;;;8.50;7.63;;;17.40;99.90;;;;;;4988044;28;20230;-83
2021/08/08 03:13:16;;;;;;;8.63;7.70;;;17.50;99.90;;;;;;4988129;28;20191;-83
2021/08/08 03:15:45;;;;;;;8.20;7.47;;;17.50;99.90;;;;;;4988066;28;20202;-82
2021/08/08 03:18:16;;;;;;;8.47;7.60;;;17.50;99.90;;;;;;4988047;28;20404;-83
2021/08/08 03:20:48;;;;;;;9.23;7.70;;;17.50;99.90;;;;;;4990836;28;20219;-83
2021/08/08 03:23:20;;;;;;;8.30;7.40;;;17.60;99.90;;;;;;4991578;28;20676;-83
2021/08/08 03:25:49;;;;;;;8.10;7.40;;;17.60;99.90;;;;;;4996034;28;20200;-82
2021/08/08 03:28:31;;;;;;;8.07;7.37;;;17.70;99.90;;;;;;4997008;28;20204;-83
2021/08/08 03:31:04;;;;;;;8.57;7.53;;;17.70;99.90;;;;;;4991401;28;20776;-85
2021/08/08 03:33:33;;;;;;;8.53;7.60;;;17.80;99.90;;;;;;4995551;28;21051;-83
2021/08/08 03:36:02;;;;;;;8.10;7.30;;;17.90;99.90;;;;;;4991557;28;20207;-87
2021/08/08 03:38:32;;;;;;;7.57;6.83;;;17.90;99.90;;;;;;4990209;28;20200;-84
2021/08/08 03:41:01;;;;;;;8.07;7.40;;;17.90;99.90;;;;;;4984916;28;20223;-82
2021/08/08 03:43:36;;;;;;;7.87;7.17;;;18.00;99.90;;;;;;4984492;28;20209;-83
2021/08/08 03:46:06;;;;;;;8.30;7.50;;;18.10;99.90;;;;;;4994577;28;20231;-85
2021/08/08 03:48:35;;;;;;;8.30;7.20;;;18.10;99.90;;;;;;4984768;28;20212;-85
2021/08/08 03:51:04;;;;;;;8.17;7.37;;;18.20;99.90;;;;;;4989364;28;20311;-83
2021/08/08 03:53:33;;;;;;;9.00;7.10;;;18.10;99.90;;;;;;4999122;28;20212;-85
2021/08/08 03:56:03;;;;;;;7.93;7.13;;;18.20;99.90;;;;;;4988548;28;20214;-85
2021/08/08 03:58:31;;;;;;;7.73;6.90;;;18.30;99.90;;;;;;4993245;28;20764;-83
2021/08/08 04:01:04;;;;;;;8.20;7.50;;;18.30;99.90;;;;;;4970451;28;20258;-84
2021/08/08 04:03:35;;;;;;;7.40;6.70;;;18.30;99.90;;;;;;4991900;28;20436;-83
2021/08/08 04:06:04;;;;;;;7.70;7.00;;;18.40;99.90;;;;;;4988105;28;20207;-82
2021/08/08 04:08:33;;;;;;;8.23;7.20;;;18.40;99.90;;;;;;4994403;28;20207;-81
2021/08/08 04:11:02;;;;;;;7.77;7.07;;;18.40;99.90;;;;;;4994760;28;20308;-82
2021/08/08 04:13:31;;;;;;;7.97;6.83;;;18.50;99.90;;;;;;4988819;28;20203;-84
2021/08/08 04:16:00;;;;;;;7.97;7.17;;;18.40;99.90;;;;;;4985787;28;21076;-85
2021/08/08 04:18:34;;;;;;;7.33;6.73;;;18.40;99.90;;;;;;4985894;28;20219;-83
2021/08/08 04:21:06;;;;;;;7.90;7.10;;;18.40;99.90;;;;;;4983827;28;20350;-84
2021/08/08 04:23:35;;;;;;;9.43;7.50;;;18.40;99.90;;;;;;4988265;28;20437;-83
2021/08/08 04:26:04;;;;;;;8.47;7.57;;;18.50;99.90;;;;;;4983643;28;20851;-85
2021/08/08 04:28:39;;;;;;;7.50;6.73;;;18.50;99.90;;;;;;4990557;28;20208;-82
2021/08/08 04:31:08;;;;;;;7.47;6.87;;;18.50;99.90;;;;;;4986074;28;20273;-83
2021/08/08 04:33:46;;;;;;;8.10;7.40;;;18.50;99.90;;;;;;4992195;28;20212;-84
2021/08/08 04:36:17;;;;;;;7.30;6.57;;;18.40;99.90;;;;;;4984409;28;20290;-85
2021/08/08 04:38:46;;;;;;;7.93;7.13;;;18.40;99.90;;;;;;4987034;28;20204;-84
2021/08/08 04:41:17;;;;;;;7.20;6.50;;;18.40;99.90;;;;;;4991046;28;20280;-81
2021/08/08 04:43:46;;;;;;;6.90;6.37;;;18.40;99.90;;;;;;4984319;28;20331;-84
2021/08/08 04:46:19;;;;;;;7.40;6.80;;;18.30;99.90;;;;;;4988558;28;20969;-84
2021/08/08 04:48:49;;;;;;;7.20;6.60;;;18.30;99.90;;;;;;4982080;28;21152;-84
2021/08/08 04:51:18;;;;;;;7.57;6.87;;;18.30;99.90;;;;;;4996129;28;21027;-83
2021/08/08 04:53:47;;;;;;;7.50;6.67;;;18.30;99.90;;;;;;4991873;28;20239;-84
2021/08/08 04:56:23;;;;;;;7.97;7.20;;;18.20;99.90;;;;;;5018314;28;20203;-82
2021/08/08 04:58:56;;;;;;;7.47;6.70;;;18.20;99.90;;;;;;5018193;28;20206;-84
2021/08/08 05:01:27;;;;;;;7.47;6.70;;;18.10;99.90;;;;;;5009879;28;20216;-83
2021/08/08 05:03:57;;;;;;;8.20;7.23;;;18.10;99.90;;;;;;4991354;28;20682;-83
2021/08/08 05:06:27;;;;;;;8.00;7.20;;;18.10;99.90;;;;;;4988904;28;20207;-85
2021/08/08 05:08:58;;;;;;;8.20;7.50;;;18.00;99.90;;;;;;4965684;28;20211;-81
2021/08/08 05:11:27;;;;;;;8.47;7.77;;;18.00;99.90;;;;;;4990478;28;20384;-84
2021/08/08 05:13:57;;;;;;;8.57;7.70;;;17.90;99.90;;;;;;4990505;28;20218;-82
2021/08/08 05:21:11;;;;;;;9.57;8.57;;;18.00;99.90;;;;;;5001967;28;20222;-85
2021/08/08 05:24:26;;;;;;;9.17;8.33;;;17.90;99.90;;;;;;4991605;28;20235;-86
2021/08/08 05:26:56;;;;;;;10.03;8.40;;;17.90;99.90;;;;;;4988681;28;20295;-84
2021/08/08 05:32:59;;;;;;;9.63;8.40;;;17.80;99.90;;;;;;4996766;28;20212;-87
2021/08/08 05:35:28;;;;;;;9.63;8.37;;;17.70;99.90;;;;;;5017242;28;20199;-83
2021/08/08 05:38:01;;;;;;;9.63;8.63;;;17.70;99.90;;;;;;5020525;28;20188;-84
2021/08/08 05:40:33;;;;;;;9.90;9.00;;;17.70;99.90;;;;;;5020681;28;20187;-84
2021/08/08 05:43:04;;;;;;;9.37;8.33;;;17.80;99.90;;;;;;5016822;28;20211;-83
2021/08/08 05:46:10;;;;;;;10.10;9.20;;;17.80;99.90;;;;;;5004819;28;20199;-84
2021/08/08 05:48:58;;;;;;;9.80;8.80;;;17.80;99.90;;;;;;5015904;28;20184;-85
2021/08/08 05:51:55;;;;;;;10.63;9.47;;;17.90;99.90;;;;;;5009217;28;20246;-84
2021/08/08 05:54:26;;;;;;;8.87;8.07;;;18.10;99.90;;;;;;5019662;28;20217;-82
2021/08/08 05:57:02;;;;;;;9.33;8.47;;;18.20;99.90;;;;;;4992257;28;20287;-84
2021/08/08 05:59:33;;;;;;;10.07;8.93;;;18.30;99.90;;;;;;5023817;28;20227;-85
2021/08/08 06:02:06;;;;;;;9.50;8.40;;;18.30;99.90;;;;;;4997784;28;20259;-85
2021/08/08 06:04:35;;;;;;;9.30;8.47;;;18.40;99.90;;;;;;5021852;28;20235;-82
2021/08/08 06:07:04;;;;;;;9.27;8.37;;;18.50;99.90;;;;;;5019787;28;20292;-84
2021/08/08 06:09:34;;;;;;;8.13;7.43;;;18.50;99.90;;;;;;5010571;28;20645;-84
2021/08/08 06:12:04;;;;;;;8.67;7.87;;;18.60;99.90;;;;;;5016279;28;20259;-85
2021/08/08 06:14:33;;;;;;;8.40;7.60;;;18.70;99.90;;;;;;4987671;28;20227;-82
2021/08/08 06:17:02;;;;;;;8.20;7.50;;;18.80;99.90;;;;;;5014535;28;20191;-82
2021/08/08 06:19:33;;;;;;;7.50;6.90;;;18.80;99.90;;;;;;5020288;28;20196;-84
2021/08/08 06:22:11;;;;;;;7.80;7.10;;;18.90;99.90;;;;;;4995806;28;20231;-84
2021/08/08 06:24:42;;;;;;;7.67;7.00;;;19.10;99.90;;;;;;5005674;28;20198;-84
2021/08/08 06:27:26;;;;;;;7.67;6.87;;;19.30;99.90;;;;;;4997088;28;20359;-84
2021/08/08 06:30:20;;;;;;;6.97;6.37;;;19.60;99.90;;;;;;4975709;28;20224;-83
2021/08/08 06:33:01;;;;;;;7.40;6.30;;;20.00;99.90;;;;;;4987675;28;20706;-84
2021/08/08 06:35:29;;;;;;;6.90;6.30;;;20.30;99.90;;;;;;4985507;28;20200;-86
2021/08/08 06:37:59;;;;;;;6.50;5.77;;;20.50;99.90;;;;;;4987023;28;20196;-84
2021/08/08 06:40:29;;;;;;;6.10;5.50;;;20.70;99.90;;;;;;4997669;28;20238;-83
2021/08/08 06:43:00;;;;;;;5.83;5.33;;;20.90;98.20;;;;;;5007370;28;20721;-84
2021/08/08 06:45:29;;;;;;;5.55;5.05;;;20.90;97.30;;;;;;5003517;28;20209;-82
2021/08/08 06:47:59;;;;;;;5.40;4.93;;;21.10;97.50;;;;;;5000058;28;20438;-83
2021/08/08 06:50:28;;;;;;;5.10;4.63;;;21.30;96.20;;;;;;4991868;28;20305;-83
2021/08/08 06:52:59;;;;;;;5.85;4.90;;;21.60;96.10;;;;;;4990588;28;20267;-82
2021/08/08 06:55:33;;;;;;;4.95;4.40;;;22.00;94.40;;;;;;4988580;28;20208;-84
2021/08/08 06:58:05;;;;;;;5.07;4.60;;;22.30;92.60;;;;;;4987342;28;21113;-83
2021/08/08 07:00:38;;;;;;;4.82;4.43;;;22.60;92.70;;;;;;4996076;28;20208;-85
2021/08/08 07:03:14;;;;;;;5.45;4.50;;;23.00;91.80;;;;;;4993668;28;20270;-86
2021/08/08 07:05:43;;;;;;;4.75;4.43;;;23.60;91.40;;;;;;4994450;28;20572;-84
2021/08/08 07:08:35;;;;;;;4.57;4.18;;;24.00;90.60;;;;;;4988949;28;20287;-86
2021/08/08 07:11:06;;;;;;;5.40;4.88;;;24.10;89.50;;;;;;4989803;28;20208;-84
2021/08/08 07:13:39;;;;;;;4.97;4.47;;;23.90;89.80;;;;;;4985480;28;20207;-83
2021/08/08 07:16:17;;;;;;;4.95;4.55;;;23.60;89.70;;;;;;4986847;28;20211;-85
2021/08/08 07:18:47;;;;;;;6.40;5.90;;;23.20;90.50;;;;;;4985157;28;20203;-83
2021/08/08 07:21:16;;;;;;;7.70;6.85;;;22.80;90.90;;;;;;4970445;28;20303;-85
2021/08/08 07:24:13;;;;;;;9.70;8.93;;;22.50;91.40;;;;;;4984591;28;20196;-84
2021/08/08 07:26:45;;;;;;;10.25;9.35;;;22.20;91.80;;;;;;4973113;28;20299;-82
2021/08/08 07:29:17;;;;;;;10.57;9.68;;;21.90;92.60;;;;;;4992320;28;20215;-84
2021/08/08 07:31:56;;;;;;;9.50;8.80;;;21.60;93.30;;;;;;5001346;28;20227;-85
2021/08/08 07:34:27;;;;;;;10.00;8.98;;;21.40;94.00;;;;;;4970562;28;20755;-84
2021/08/08 07:37:01;;;;;;;9.40;8.70;;;21.20;94.20;;;;;;4989958;28;20214;-83
2021/08/08 07:39:32;;;;;;;9.53;8.83;;;21.00;94.80;;;;;;4993096;28;20208;-87
2021/08/08 07:42:03;;;;;;;9.30;8.60;;;20.90;95.40;;;;;;4992425;28;20279;-85
2021/08/08 07:44:37;;;;;;;10.00;9.10;;;20.80;95.80;;;;;;5002737;28;20726;-85
2021/08/08 07:47:06;;;;;;;9.80;8.97;;;20.70;95.90;;;;;;4998662;28;20198;-83
2021/08/08 07:49:38;;;;;;;9.90;9.10;;;20.70;96.60;;;;;;5028431;28;20196;-84
2021/08/08 07:52:09;;;;;;;10.97;9.73;;;20.60;96.70;;;;;;5024619;28;20243;-85
2021/08/08 07:54:40;;;;;;;10.77;9.87;;;20.50;96.30;;;;;;5022056;28;20196;-83
2021/08/08 07:57:15;;;;;;;13.17;11.33;;;20.50;96.80;;;;;;5010694;28;20259;-85
2021/08/08 07:59:50;;;;;;;12.87;11.50;;;20.40;97.70;;;;;;5004490;28;20196;-86
2021/08/08 08:02:19;;;;;;;12.03;10.77;;;20.30;97.50;;;;;;4997223;28;20203;-83
2021/08/08 08:04:52;;;;;;;12.60;11.27;;;20.30;97.90;;;;;;4966344;28;20307;-84
2021/08/08 08:07:22;;;;;;;11.83;10.90;;;20.30;97.50;;;;;;4992233;28;20215;-85
2021/08/08 08:09:51;;;;;;;13.10;11.80;;;20.30;97.90;;;;;;4967639;28;20313;-86
2021/08/08 08:12:30;;;;;;;11.93;10.90;;;20.20;97.30;;;;;;4995429;28;20310;-85
2021/08/08 08:15:04;;;;;;;11.80;10.80;;;20.20;97.90;;;;;;4991923;28;20262;-85
2021/08/08 08:17:33;;;;;;;12.00;10.90;;;20.10;98.50;;;;;;4987339;28;20250;-84
2021/08/08 08:20:06;;;;;;;10.43;9.50;;;20.00;97.30;;;;;;4999102;28;20314;-85
2021/08/08 08:22:38;;;;;;;11.00;9.90;;;19.90;98.80;;;;;;4994097;28;20215;-84
2021/08/08 08:25:09;;;;;;;10.50;9.60;;;19.80;99.30;;;;;;4986080;28;20200;-85
2021/08/08 08:27:43;;;;;;;10.13;9.13;;;19.60;99.40;;;;;;4984841;28;20192;-86
2021/08/08 08:30:16;;;;;;;10.20;9.10;;;19.80;99.20;;;;;;4996118;28;20215;-84
2021/08/08 08:32:48;;;;;;;9.37;8.57;;;19.90;97.80;;;;;;4994188;28;20346;-85
2021/08/08 08:35:30;;;;;;;8.03;7.43;;;20.10;96.40;;;;;;4992049;28;20207;-86
2021/08/08 08:37:59;;;;;;;8.10;7.40;;;20.00;96.30;;;;;;4999925;28;20215;-84
2021/08/08 08:40:36;;;;;;;7.23;6.63;;;19.90;96.80;;;;;;5007657;28;20726;-84
2021/08/08 08:43:20;;;;;;;6.67;5.93;;;19.80;95.90;;;;;;4988846;28;20213;-86
2021/08/08 08:45:50;;;;;;;6.40;5.80;;;19.70;96.00;;;;;;4990168;28;20717;-82
2021/08/08 08:48:21;;;;;;;6.17;5.60;;;19.60;96.50;;;;;;4990853;28;20231;-85
2021/08/08 08:50:53;;;;;;;7.57;5.77;;;19.40;97.80;;;;;;4970970;28;20204;-88
2021/08/08 08:53:26;;;;;;;5.10;4.70;;;19.40;98.30;;;;;;4991105;28;20231;-84
2021/08/08 08:58:50;;;;;;;5.33;4.90;;;19.40;99.90;;;;;;4991420;28;20251;-84
2021/08/08 09:01:20;;;;;;;4.73;4.33;;;19.50;99.90;;;;;;4993714;28;20658;-85
2021/08/08 09:03:53;;;;;;;4.90;4.50;;;19.50;99.20;;;;;;4992819;28;20281;-84
2021/08/08 09:06:23;;;;;;;4.90;4.40;;;19.50;99.90;;;;;;4992932;28;20204;-84
2021/08/08 09:08:52;;;;;;;4.30;3.90;;;19.50;98.80;;;;;;4993768;28;20785;-83
2021/08/08 09:11:24;;;;;;;4.70;4.30;;;19.50;99.90;;;;;;4992148;28;20219;-87
2021/08/08 09:14:03;;;;;;;4.30;4.00;;;19.50;99.90;;;;;;4995005;28;20607;-85
2021/08/08 09:16:40;;;;;;;3.93;3.63;;;19.50;99.90;;;;;;4990030;28;20208;-84
2021/08/08 09:19:25;;;;;;;3.80;3.60;;;19.60;99.00;;;;;;4999924;28;20211;-85
2021/08/08 09:22:06;;;;;;;3.63;3.40;;;19.70;99.20;;;;;;4999839;28;20291;-82
2021/08/08 09:24:39;;;;;;;2.93;2.67;;;19.80;99.40;;;;;;4996935;28;20204;-83
2021/08/08 09:27:15;;;;;;;2.97;2.70;;;20.00;96.80;;;;;;4999940;28;20208;-83
2021/08/08 09:29:51;;;;;;;3.10;2.90;;;19.90;95.50;;;;;;5005271;28;20203;-84
2021/08/08 09:32:34;;;;;;;2.93;2.60;;;19.90;96.40;;;;;;5002803;28;20569;-85
2021/08/08 09:35:09;;;;;;;2.93;2.70;;;20.10;97.80;;;;;;5008248;28;20450;-84
2021/08/08 09:40:57;;;;;;;2.83;2.63;;;20.20;95.20;;;;;;4978774;28;20204;-82
2021/08/08 09:43:31;;;;;;;3.20;3.00;;;20.30;96.80;;;;;;4987637;28;20212;-83
2021/08/08 09:46:02;;;;;;;2.70;2.50;;;20.40;94.00;;;;;;4998347;28;20208;-86
2021/08/08 09:48:41;;;;;;;2.77;2.50;;;20.40;94.20;;;;;;4997412;28;20268;-84
2021/08/08 09:51:23;;;;;;;3.00;2.60;;;20.40;93.30;;;;;;5003472;28;20226;-84
2021/08/08 09:53:56;;;;;;;3.00;2.40;;;20.30;93.80;;;;;;4999660;28;20282;-84
2021/08/08 09:56:25;;;;;;;2.40;2.30;;;20.40;94.50;;;;;;5014856;28;20290;-86
2021/08/08 09:59:04;;;;;;;2.70;2.50;;;20.60;93.90;;;;;;4997265;28;20779;-84
2021/08/08 10:01:39;;;;;;;2.67;2.47;;;20.60;93.50;;;;;;4971968;28;20223;-84
2021/08/08 10:04:09;;;;;;;3.20;2.45;;;20.70;93.10;;;;;;4986182;28;20203;-85
2021/08/08 10:06:39;;;;;;;2.60;2.40;;;20.90;93.00;;;;;;4985982;28;20764;-86
2021/08/08 10:09:11;;;;;;;2.50;2.30;;;21.20;93.00;;;;;;4991388;28;20208;-87
2021/08/08 10:11:44;;;;;;;2.83;2.63;;;21.20;92.10;;;;;;4972130;28;20223;-84
2021/08/08 10:14:14;;;;;;;3.03;2.83;;;21.10;91.80;;;;;;4998162;28;20231;-84
2021/08/08 10:16:49;;;;;;;3.17;2.97;;;21.00;92.30;;;;;;4988265;28;20206;-84
2021/08/08 10:19:21;;;;;;;3.45;3.00;;;20.90;92.40;;;;;;5003171;28;20204;-83
2021/08/08 10:21:51;;;;;;;3.40;3.10;;;20.70;92.70;;;;;;5008472;28;20376;-84
2021/08/08 10:24:25;;;;;;;3.37;3.07;;;20.70;93.20;;;;;;4999480;28;20211;-86
2021/08/08 10:26:55;;;;;;;3.47;3.22;;;20.80;94.10;;;;;;5001469;28;20204;-84
2021/08/08 10:29:32;;;;;;;3.40;3.03;;;21.00;93.60;;;;;;4998519;28;20207;-85
2021/08/08 10:32:03;;;;;;;3.45;3.15;;;21.30;92.30;;;;;;5001955;28;20290;-86
2021/08/08 10:34:32;;;;;;;2.97;2.78;;;21.50;91.20;;;;;;5014051;28;20273;-84
2021/08/08 10:37:12;;;;;;;3.22;2.92;;;21.80;90.90;;;;;;5014613;28;20258;-85
2021/08/08 10:39:43;;;;;;;2.90;2.63;;;22.00;90.60;;;;;;5008361;28;20204;-85
2021/08/08 10:42:18;;;;;;;2.95;2.75;;;22.20;90.20;;;;;;4995077;28;20197;-85
2021/08/08 10:44:48;;;;;;;3.30;2.13;;;22.40;90.00;;;;;;4987681;28;20208;-85
2021/08/08 10:47:29;;;;;;;2.20;2.10;;;22.70;89.40;;;;;;4984786;28;20192;-84
2021/08/08 10:50:08;;;;;;;2.38;2.10;;;22.90;88.10;;;;;;4986924;28;20755;-86
2021/08/08 10:52:41;;;;;;;2.35;2.15;;;22.70;87.60;;;;;;4995366;28;20229;-84
2021/08/08 10:55:22;;;;;;;2.15;2.00;;;22.50;87.90;;;;;;4990279;28;20231;-86
2021/08/08 10:57:54;;;;;;;3.25;2.20;;;22.50;88.50;;;;;;4985041;28;20235;-84
2021/08/08 11:00:32;;;;;;;2.40;2.20;;;22.60;88.50;;;;;;4990687;28;20203;-85
2021/08/08 11:03:14;;;;;;;2.15;1.92;;;22.60;87.20;;;;;;4998853;28;20701;-85
2021/08/08 11:05:44;;;;;;;2.63;2.20;;;22.60;87.60;;;;;;5002367;28;20192;-85
2021/08/08 11:08:14;;;;;;;2.75;2.17;;;22.80;86.80;;;;;;4997150;28;20237;-84
2021/08/08 11:10:45;;;;;;;2.13;2.03;;;22.90;85.60;;;;;;5000950;28;20227;-83
2021/08/08 11:13:19;;;;;;;2.50;2.30;;;22.80;85.70;;;;;;5003168;28;20200;-85
2021/08/08 11:15:49;;;;;;;2.10;2.00;;;22.70;85.60;;;;;;4997935;28;20573;-87
2021/08/08 11:18:29;;;;;;;2.42;2.17;;;22.40;85.70;;;;;;4993564;28;20197;-86
2021/08/08 11:20:59;;;;;;;2.95;2.15;;;22.40;85.80;;;;;;4978737;28;20222;-86
2021/08/08 11:23:31;;;;;;;2.15;2.03;;;22.10;86.00;;;;;;5004844;28;20215;-83
2021/08/08 11:26:00;;;;;;;3.13;2.30;;;22.20;86.20;;;;;;4992247;28;20206;-85
2021/08/08 11:28:32;;;;;;;3.47;2.63;;;22.20;86.20;;;;;;5001664;28;20267;-84
2021/08/08 11:31:02;;;;;;;2.40;2.13;;;22.60;86.60;;;;;;4999673;28;20217;-83
2021/08/08 11:33:33;;;;;;;2.13;2.03;;;22.90;85.90;;;;;;4979157;28;20255;-87
2021/08/08 11:36:02;;;;;;;2.40;2.25;;;23.10;85.70;;;;;;4994391;28;21040;-85
2021/08/08 11:38:32;;;;;;;4.20;2.47;;;23.30;85.20;;;;;;4993038;28;20211;-84
2021/08/08 11:41:02;;;;;;;2.50;2.30;;;23.30;85.10;;;;;;4978362;28;20211;-83
2021/08/08 11:43:33;;;;;;;2.65;2.45;;;23.20;84.90;;;;;;4989459;28;20199;-85
2021/08/08 11:46:23;;;;;;;3.00;2.45;;;23.30;85.10;;;;;;4985538;28;20216;-85
2021/08/08 11:48:57;;;;;;;2.50;2.30;;;23.20;84.80;;;;;;4986792;28;20258;-86
2021/08/08 11:51:28;;;;;;;3.00;2.80;;;23.10;85.30;;;;;;4989916;28;20200;-84
2021/08/08 11:54:00;;;;;;;3.35;2.65;;;23.30;85.20;;;;;;4982788;28;20247;-85
2021/08/08 11:56:31;;;;;;;3.13;2.03;;;23.50;85.10;;;;;;5001974;28;20208;-85
2021/08/08 11:59:03;;;;;;;3.03;2.47;;;23.70;84.80;;;;;;4995930;28;20208;-86
2021/08/08 12:01:32;;;;;;;2.28;2.17;;;23.60;84.80;;;;;;4990656;28;21275;-84
2021/08/08 12:04:14;;;;;;;2.63;2.42;;;23.60;84.90;;;;;;4988738;28;20216;-85
2021/08/08 12:06:46;;;;;;;2.47;2.28;;;23.60;84.50;;;;;;4982909;28;20666;-83
2021/08/08 12:09:15;;;;;;;2.78;2.53;;;23.70;84.60;;;;;;4988677;28;20215;-83
2021/08/08 12:11:51;;;;;;;2.92;2.50;;;23.70;84.30;;;;;;4984748;28;20274;-86
2021/08/08 12:14:39;;;;;;;2.60;2.40;;;23.60;84.50;;;;;;4966939;28;20265;-84
2021/08/08 12:17:13;;;;;;;2.80;2.60;;;23.30;84.50;;;;;;4982114;28;20218;-84
2021/08/08 12:19:51;;;;;;;3.00;2.65;;;23.10;84.80;;;;;;4994615;28;20449;-85
2021/08/08 12:22:24;;;;;;;2.70;2.50;;;23.00;85.20;;;;;;5009773;28;20227;-85
2021/08/08 12:25:04;;;;;;;3.25;2.65;;;23.00;86.00;;;;;;4991375;28;20196;-84
2021/08/08 12:27:37;;;;;;;2.95;2.72;;;23.10;85.20;;;;;;4973109;28;20302;-84
2021/08/08 12:30:08;;;;;;;2.78;2.58;;;23.20;84.80;;;;;;4998410;28;20203;-85
2021/08/08 12:32:46;;;;;;;2.65;2.40;;;23.20;84.70;;;;;;4974510;28;20317;-84
2021/08/08 12:35:18;;;;;;;2.70;2.50;;;23.20;84.80;;;;;;4992767;28;20238;-84
2021/08/08 12:37:48;;;;;;;2.67;2.47;;;23.20;84.80;;;;;;4988153;28;20875;-85
2021/08/08 12:40:20;;;;;;;2.78;2.58;;;23.20;84.90;;;;;;4990677;28;20239;-85
2021/08/08 12:42:50;;;;;;;4.43;2.42;;;23.30;84.80;;;;;;4998143;28;20196;-84
2021/08/08 12:45:22;;;;;;;3.13;2.80;;;23.30;85.00;;;;;;5007977;28;20208;-85
2021/08/08 12:48:12;;;;;;;3.03;2.83;;;23.20;84.40;;;;;;5007513;28;20247;-84
2021/08/08 12:50:43;;;;;;;3.00;2.80;;;23.10;84.70;;;;;;5011195;28;20192;-88
2021/08/08 12:53:12;;;;;;;2.90;2.60;;;23.10;84.90;;;;;;5010952;28;20196;-85
2021/08/08 12:55:43;;;;;;;2.80;2.60;;;23.20;85.00;;;;;;5003504;28;20223;-85
2021/08/08 12:58:11;;;;;;;2.63;2.42;;;23.30;84.50;;;;;;4981656;28;20243;-88
2021/08/08 13:00:40;;;;;;;3.10;2.80;;;23.20;84.60;;;;;;4970339;28;20216;-84
2021/08/08 13:03:20;;;;;;;2.90;2.70;;;23.40;84.90;;;;;;4989060;28;20211;-86
2021/08/08 13:05:57;;;;;;;2.97;2.75;;;24.00;84.30;;;;;;4968619;28;20208;-87
2021/08/08 13:08:26;;;;;;;2.78;2.55;;;24.30;84.00;;;;;;4981051;28;20302;-85
2021/08/08 13:10:55;;;;;;;2.75;2.55;;;24.80;83.50;;;;;;4990087;28;20273;-86
2021/08/08 13:13:27;;;;;;;2.85;2.63;;;25.00;82.90;;;;;;4998329;28;20199;-85
2021/08/08 13:15:56;;;;;;;4.32;3.03;;;24.90;82.70;;;;;;4989021;28;20544;-83
2021/08/08 13:18:29;;;;;;;2.85;2.65;;;24.90;82.80;;;;;;4993989;28;20623;-84
2021/08/08 13:21:03;;;;;;;2.63;2.50;;;24.80;82.70;;;;;;4999842;28;20686;-85
2021/08/08 13:23:32;;;;;;;3.17;2.72;;;24.70;82.30;;;;;;5003121;28;20317;-86
2021/08/08 13:26:05;;;;;;;3.40;2.70;;;24.50;82.10;;;;;;5021626;28;20233;-85